KPTB

Details ICAO KPTB
Name DINWIDDIE CO
Region United States
Timezone America/New_York (UTC-4.0)
Plans Departing 4
Arriving 4
Stats Elevation 193 ft / 59 m (AMSL)
Location 37.183582° -77.507765°
Runways 2
Magnetic Variation 10.217° W
Sunrise 2018-05-23 09:57:16 UTC / 2018-05-23 05:57:16 Local
Sunset 2018-05-24 00:19:12 UTC / 2018-05-23 20:19:12 Local
Advertisement - Login to hide

Runways

ID Width Length Bearing (true) Bearing (mag) Surface Threshold Offset Overrun Length
05 100 ft / 30 m 4,999 ft / 1,524 m 42.79° 53.01° Asphalt 0 ft / 0 m 0 ft / 0 m
14 50 ft / 15 m 3,061 ft / 933 m 133.04° 143.26° Asphalt 0 ft / 0 m 0 ft / 0 m
23 100 ft / 30 m 4,999 ft / 1,524 m 222.80° 233.02° Asphalt 0 ft / 0 m 0 ft / 0 m
32 50 ft / 15 m 3,061 ft / 933 m 313.05° 323.27° Asphalt 0 ft / 0 m 0 ft / 0 m

Map

Weather


0- 5 10 15 20 25 30 35+ Temperature / ° C

Clouds and Precipitation
Forecast for 2018-05-23 18:00 UTC. Updated 2 hours ago

Ground ~20,000 ft ~40,000 ft Winds

METAR

KPTB 231915Z AUTO 36004KT 7SM SCT045 SCT055 30/17 A3000 RMK AO2 T02970173

TAF

Not found

Frequencies

Recorded 133.32 MHz AWOS 3
Approach 134.70 MHz POTOMAC APP
Unicom 122.70 MHz CTAF/UNICOM
Departure 134.70 MHz POTOMAC DEP
Warning: Do not use this data for real-world aviation or navigation. No guarantee of current accuracy is given.